sensor_id;sensor_type;location;lat;lon;timestamp;temperature;humidity
10089;DHT22;51898;49.864;8.550;2024-01-15T00:01:49;-2.50;91.50
10089;DHT22;51898;49.864;8.550;2024-01-15T00:04:50;-2.60;91.40
10089;DHT22;51898;49.864;8.550;2024-01-15T00:07:52;-2.60;91.60
10089;DHT22;51898;49.864;8.550;2024-01-15T00:10:54;-2.50;91.50
10089;DHT22;51898;49.864;8.550;2024-01-15T00:13:56;-2.50;91.70
10089;DHT22;51898;49.864;8.550;2024-01-15T00:16:57;-2.50;91.90
10089;DHT22;51898;49.864;8.550;2024-01-15T00:19:59;-2.50;92.40
10089;DHT22;51898;49.864;8.550;2024-01-15T00:23:01;-2.50;92.80
10089;DHT22;51898;49.864;8.550;2024-01-15T00:26:03;-2.60;93.10
10089;DHT22;51898;49.864;8.550;2024-01-15T00:29:09;-2.50;93.00
10089;DHT22;51898;49.864;8.550;2024-01-15T00:32:10;-2.60;93.20
10089;DHT22;51898;49.864;8.550;2024-01-15T00:35:12;-2.60;93.60
10089;DHT22;51898;49.864;8.550;2024-01-15T00:38:14;-2.50;93.40
10089;DHT22;51898;49.864;8.550;2024-01-15T00:41:16;-2.50;93.60
10089;DHT22;51898;49.864;8.550;2024-01-15T00:44:17;-2.50;93.80
10089;DHT22;51898;49.864;8.550;2024-01-15T00:47:19;-2.50;93.70
10089;DHT22;51898;49.864;8.550;2024-01-15T00:50:21;-2.50;93.60
10089;DHT22;51898;49.864;8.550;2024-01-15T00:53:23;-2.40;93.70
10089;DHT22;51898;49.864;8.550;2024-01-15T00:56:24;-2.40;93.40
10089;DHT22;51898;49.864;8.550;2024-01-15T00:59:26;-2.30;93.50
10089;DHT22;51898;49.864;8.550;2024-01-15T01:02:27;-2.30;93.60
10089;DHT22;51898;49.864;8.550;2024-01-15T01:05:29;-2.30;93.40
10089;DHT22;51898;49.864;8.550;2024-01-15T01:08:31;-2.30;93.20
10089;DHT22;51898;49.864;8.550;2024-01-15T01:11:33;-2.30;93.20
10089;DHT22;51898;49.864;8.550;2024-01-15T01:14:35;-2.30;92.60
10089;DHT22;51898;49.864;8.550;2024-01-15T01:17:36;-2.30;92.00
10089;DHT22;51898;49.864;8.550;2024-01-15T01:20:38;-2.30;91.80
10089;DHT22;51898;49.864;8.550;2024-01-15T01:23:40;-2.20;91.60
10089;DHT22;51898;49.864;8.550;2024-01-15T01:26:42;-2.20;91.10
10089;DHT22;51898;49.864;8.550;2024-01-15T01:29:44;-2.10;90.80
10089;DHT22;51898;49.864;8.550;2024-01-15T01:32:45;-2.20;90.80
10089;DHT22;51898;49.864;8.550;2024-01-15T01:35:47;-2.10;90.60
10089;DHT22;51898;49.864;8.550;2024-01-15T01:38:49;-2.20;90.50
10089;DHT22;51898;49.864;8.550;2024-01-15T01:41:51;-2.20;90.40
10089;DHT22;51898;49.864;8.550;2024-01-15T01:44:53;-2.20;90.20
10089;DHT22;51898;49.864;8.550;2024-01-15T01:47:54;-2.20;90.10
10089;DHT22;51898;49.864;8.550;2024-01-15T01:50:59;-2.20;89.90
10089;DHT22;51898;49.864;8.550;2024-01-15T01:54:01;-2.20;89.90
10089;DHT22;51898;49.864;8.550;2024-01-15T01:57:03;-2.20;90.00
10089;DHT22;51898;49.864;8.550;2024-01-15T02:00:07;-2.20;90.10
10089;DHT22;51898;49.864;8.550;2024-01-15T02:03:09;-2.20;90.00
10089;DHT22;51898;49.864;8.550;2024-01-15T02:06:11;-2.20;90.00
10089;DHT22;51898;49.864;8.550;2024-01-15T02:09:13;-2.30;90.20
10089;DHT22;51898;49.864;8.550;2024-01-15T02:12:16;-2.30;90.30
10089;DHT22;51898;49.864;8.550;2024-01-15T02:15:18;-2.30;90.30
10089;DHT22;51898;49.864;8.550;2024-01-15T02:18:20;-2.20;90.20
10089;DHT22;51898;49.864;8.550;2024-01-15T02:21:22;-2.20;90.20
10089;DHT22;51898;49.864;8.550;2024-01-15T02:24:24;-2.20;90.20
10089;DHT22;51898;49.864;8.550;2024-01-15T02:27:26;-2.20;90.30
10089;DHT22;51898;49.864;8.550;2024-01-15T02:30:28;-2.20;90.20
10089;DHT22;51898;49.864;8.550;2024-01-15T02:33:31;-2.10;89.90
10089;DHT22;51898;49.864;8.550;2024-01-15T02:36:33;-2.10;89.70
10089;DHT22;51898;49.864;8.550;2024-01-15T02:39:35;-2.10;89.50
10089;DHT22;51898;49.864;8.550;2024-01-15T02:42:36;-2.10;89.60
10089;DHT22;51898;49.864;8.550;2024-01-15T02:45:38;-2.10;89.80
10089;DHT22;51898;49.864;8.550;2024-01-15T02:48:40;-2.10;89.60
10089;DHT22;51898;49.864;8.550;2024-01-15T02:51:42;-2.00;89.60
10089;DHT22;51898;49.864;8.550;2024-01-15T02:54:43;-2.00;89.50
10089;DHT22;51898;49.864;8.550;2024-01-15T02:57:45;-2.00;89.40
10089;DHT22;51898;49.864;8.550;2024-01-15T03:00:47;-2.00;89.40
10089;DHT22;51898;49.864;8.550;2024-01-15T03:03:49;-2.00;89.50
10089;DHT22;51898;49.864;8.550;2024-01-15T03:06:51;-2.00;89.60
10089;DHT22;51898;49.864;8.550;2024-01-15T03:09:52;-2.00;89.50
10089;DHT22;51898;49.864;8.550;2024-01-15T03:12:54;-1.90;89.20
10089;DHT22;51898;49.864;8.550;2024-01-15T03:15:56;-2.00;89.30
10089;DHT22;51898;49.864;8.550;2024-01-15T03:18:58;-2.00;89.50
10089;DHT22;51898;49.864;8.550;2024-01-15T03:21:59;-2.00;89.50
10089;DHT22;51898;49.864;8.550;2024-01-15T03:25:02;-2.10;89.80
10089;DHT22;51898;49.864;8.550;2024-01-15T03:28:05;-2.00;89.80
10089;DHT22;51898;49.864;8.550;2024-01-15T03:31:07;-2.10;90.20
10089;DHT22;51898;49.864;8.550;2024-01-15T03:34:09;-2.00;90.10
10089;DHT22;51898;49.864;8.550;2024-01-15T03:37:11;-2.00;90.20
10089;DHT22;51898;49.864;8.550;2024-01-15T03:40:13;-1.90;89.90
10089;DHT22;51898;49.864;8.550;2024-01-15T03:43:15;-1.90;89.80
10089;DHT22;51898;49.864;8.550;2024-01-15T03:46:16;-1.90;90.10
10089;DHT22;51898;49.864;8.550;2024-01-15T03:49:18;-1.90;89.80
10089;DHT22;51898;49.864;8.550;2024-01-15T03:52:20;-1.90;90.00
10089;DHT22;51898;49.864;8.550;2024-01-15T03:55:22;-1.90;90.20
10089;DHT22;51898;49.864;8.550;2024-01-15T03:58:23;-1.90;90.10
10089;DHT22;51898;49.864;8.550;2024-01-15T04:01:25;-1.90;90.30
10089;DHT22;51898;49.864;8.550;2024-01-15T04:04:27;-1.90;90.30
10089;DHT22;51898;49.864;8.550;2024-01-15T04:07:29;-1.90;90.10
10089;DHT22;51898;49.864;8.550;2024-01-15T04:10:31;-1.90;90.20
10089;DHT22;51898;49.864;8.550;2024-01-15T04:13:33;-1.90;90.40
10089;DHT22;51898;49.864;8.550;2024-01-15T04:16:35;-1.90;90.60
10089;DHT22;51898;49.864;8.550;2024-01-15T04:19:38;-1.90;90.60
10089;DHT22;51898;49.864;8.550;2024-01-15T04:22:40;-1.80;90.80
10089;DHT22;51898;49.864;8.550;2024-01-15T04:25:41;-1.80;90.80
10089;DHT22;51898;49.864;8.550;2024-01-15T04:28:44;-1.80;90.80
10089;DHT22;51898;49.864;8.550;2024-01-15T04:31:45;-1.80;90.90
10089;DHT22;51898;49.864;8.550;2024-01-15T04:34:47;-1.80;90.50
10089;DHT22;51898;49.864;8.550;2024-01-15T04:37:49;-1.80;90.40
10089;DHT22;51898;49.864;8.550;2024-01-15T04:40:51;-1.80;90.30
10089;DHT22;51898;49.864;8.550;2024-01-15T04:43:56;-1.80;90.40
10089;DHT22;51898;49.864;8.550;2024-01-15T04:46:58;-1.80;90.40
10089;DHT22;51898;49.864;8.550;2024-01-15T04:49:59;-1.80;90.40
10089;DHT22;51898;49.864;8.550;2024-01-15T04:53:01;-1.70;90.20
10089;DHT22;51898;49.864;8.550;2024-01-15T04:56:03;-1.70;90.10
10089;DHT22;51898;49.864;8.550;2024-01-15T04:59:05;-1.70;90.00
10089;DHT22;51898;49.864;8.550;2024-01-15T05:02:07;-1.70;90.10
10089;DHT22;51898;49.864;8.550;2024-01-15T05:05:08;-1.70;90.00
10089;DHT22;51898;49.864;8.550;2024-01-15T05:08:10;-1.60;89.90
10089;DHT22;51898;49.864;8.550;2024-01-15T05:11:12;-1.60;89.90
10089;DHT22;51898;49.864;8.550;2024-01-15T05:14:14;-1.60;89.60
10089;DHT22;51898;49.864;8.550;2024-01-15T05:17:16;-1.60;89.50
10089;DHT22;51898;49.864;8.550;2024-01-15T05:20:18;-1.60;89.40
10089;DHT22;51898;49.864;8.550;2024-01-15T05:23:19;-1.50;89.20
10089;DHT22;51898;49.864;8.550;2024-01-15T05:26:21;-1.50;89.10
10089;DHT22;51898;49.864;8.550;2024-01-15T05:29:23;-1.50;89.10
10089;DHT22;51898;49.864;8.550;2024-01-15T05:32:25;-1.50;89.20
10089;DHT22;51898;49.864;8.550;2024-01-15T05:35:26;-1.50;89.40
10089;DHT22;51898;49.864;8.550;2024-01-15T05:38:28;-1.50;89.30
10089;DHT22;51898;49.864;8.550;2024-01-15T05:41:30;-1.50;89.50
10089;DHT22;51898;49.864;8.550;2024-01-15T05:44:31;-1.50;89.90
10089;DHT22;51898;49.864;8.550;2024-01-15T05:47:33;-1.50;90.20
10089;DHT22;51898;49.864;8.550;2024-01-15T05:50:35;-1.50;90.50
10089;DHT22;51898;49.864;8.550;2024-01-15T05:53:37;-1.50;90.90
10089;DHT22;51898;49.864;8.550;2024-01-15T05:56:41;-1.50;91.20
10089;DHT22;51898;49.864;8.550;2024-01-15T05:59:44;-1.50;91.30
10089;DHT22;51898;49.864;8.550;2024-01-15T06:02:46;-1.50;91.30
10089;DHT22;51898;49.864;8.550;2024-01-15T06:05:48;-1.60;91.90
10089;DHT22;51898;49.864;8.550;2024-01-15T06:08:49;-1.60;92.20
10089;DHT22;51898;49.864;8.550;2024-01-15T06:11:51;-1.60;92.30
10089;DHT22;51898;49.864;8.550;2024-01-15T06:14:53;-1.60;92.20
10089;DHT22;51898;49.864;8.550;2024-01-15T06:17:54;-1.60;92.10
10089;DHT22;51898;49.864;8.550;2024-01-15T06:20:56;-1.60;91.70
10089;DHT22;51898;49.864;8.550;2024-01-15T06:23:58;-1.60;91.70
10089;DHT22;51898;49.864;8.550;2024-01-15T06:27:00;-1.50;91.40
10089;DHT22;51898;49.864;8.550;2024-01-15T06:30:01;-1.50;91.30
10089;DHT22;51898;49.864;8.550;2024-01-15T06:33:04;-1.50;91.20
10089;DHT22;51898;49.864;8.550;2024-01-15T06:36:06;-1.40;90.90
10089;DHT22;51898;49.864;8.550;2024-01-15T06:39:08;-1.30;90.70
10089;DHT22;51898;49.864;8.550;2024-01-15T06:42:10;-1.40;90.60
10089;DHT22;51898;49.864;8.550;2024-01-15T06:45:11;-1.30;90.50
10089;DHT22;51898;49.864;8.550;2024-01-15T06:48:13;-1.30;90.20
10089;DHT22;51898;49.864;8.550;2024-01-15T06:51:18;-1.30;90.30
10089;DHT22;51898;49.864;8.550;2024-01-15T06:54:20;-1.30;90.10
10089;DHT22;51898;49.864;8.550;2024-01-15T06:57:22;-1.30;90.20
10089;DHT22;51898;49.864;8.550;2024-01-15T07:00:23;-1.20;90.10
10089;DHT22;51898;49.864;8.550;2024-01-15T07:03:25;-1.20;89.80
10089;DHT22;51898;49.864;8.550;2024-01-15T07:06:27;-1.20;89.80
10089;DHT22;51898;49.864;8.550;2024-01-15T07:09:29;-1.10;89.80
10089;DHT22;51898;49.864;8.550;2024-01-15T07:12:30;-1.10;89.80
10089;DHT22;51898;49.864;8.550;2024-01-15T07:15:32;-1.10;90.00
10089;DHT22;51898;49.864;8.550;2024-01-15T07:18:34;-1.00;90.40
10089;DHT22;51898;49.864;8.550;2024-01-15T07:21:36;-1.00;90.40
10089;DHT22;51898;49.864;8.550;2024-01-15T07:24:38;-1.10;90.70
10089;DHT22;51898;49.864;8.550;2024-01-15T07:27:39;-1.10;90.40
10089;DHT22;51898;49.864;8.550;2024-01-15T07:30:44;-1.10;90.20
10089;DHT22;51898;49.864;8.550;2024-01-15T07:33:47;-1.10;90.40
10089;DHT22;51898;49.864;8.550;2024-01-15T07:36:48;-1.20;90.80
10089;DHT22;51898;49.864;8.550;2024-01-15T07:39:50;-1.20;91.10
10089;DHT22;51898;49.864;8.550;2024-01-15T07:42:52;-1.20;91.20
10089;DHT22;51898;49.864;8.550;2024-01-15T07:45:54;-1.20;91.20
10089;DHT22;51898;49.864;8.550;2024-01-15T07:53:28;-1.10;91.00
10089;DHT22;51898;49.864;8.550;2024-01-15T07:58:04;-1.10;91.00
10089;DHT22;51898;49.864;8.550;2024-01-15T08:02:22;-1.00;91.10
10089;DHT22;51898;49.864;8.550;2024-01-15T08:11:34;-0.80;90.30
10089;DHT22;51898;49.864;8.550;2024-01-15T08:20:20;-0.70;90.00
10089;DHT22;51898;49.864;8.550;2024-01-15T08:25:00;-0.60;89.50
10089;DHT22;51898;49.864;8.550;2024-01-15T08:43:26;-0.30;88.40
10089;DHT22;51898;49.864;8.550;2024-01-15T08:46:28;-0.30;88.00
10089;DHT22;51898;49.864;8.550;2024-01-15T08:49:30;-0.30;87.80
10089;DHT22;51898;49.864;8.550;2024-01-15T08:52:32;-0.30;87.90
10089;DHT22;51898;49.864;8.550;2024-01-15T08:55:34;-0.20;87.80
10089;DHT22;51898;49.864;8.550;2024-01-15T08:58:35;-0.10;87.80
10089;DHT22;51898;49.864;8.550;2024-01-15T09:01:38;0.00;87.40
10089;DHT22;51898;49.864;8.550;2024-01-15T09:04:41;0.00;87.10
10089;DHT22;51898;49.864;8.550;2024-01-15T09:07:42;0.00;86.80
10089;DHT22;51898;49.864;8.550;2024-01-15T09:10:44;0.10;86.60
10089;DHT22;51898;49.864;8.550;2024-01-15T09:13:47;0.10;86.50
10089;DHT22;51898;49.864;8.550;2024-01-15T09:16:48;0.10;86.60
10089;DHT22;51898;49.864;8.550;2024-01-15T09:19:50;0.10;86.50
10089;DHT22;51898;49.864;8.550;2024-01-15T09:22:52;0.20;86.30
10089;DHT22;51898;49.864;8.550;2024-01-15T09:25:54;0.20;86.30
10089;DHT22;51898;49.864;8.550;2024-01-15T09:28:56;0.20;86.50
10089;DHT22;51898;49.864;8.550;2024-01-15T09:31:59;0.40;85.60
10089;DHT22;51898;49.864;8.550;2024-01-15T09:35:00;0.40;85.50
10089;DHT22;51898;49.864;8.550;2024-01-15T09:38:02;0.30;85.70
10089;DHT22;51898;49.864;8.550;2024-01-15T09:41:05;0.30;85.80
10089;DHT22;51898;49.864;8.550;2024-01-15T09:44:07;0.40;85.80
10089;DHT22;51898;49.864;8.550;2024-01-15T09:47:10;0.50;86.10
10089;DHT22;51898;49.864;8.550;2024-01-15T09:50:12;0.60;85.40
10089;DHT22;51898;49.864;8.550;2024-01-15T09:53:15;0.60;85.30
10089;DHT22;51898;49.864;8.550;2024-01-15T09:56:17;0.60;84.70
10089;DHT22;51898;49.864;8.550;2024-01-15T09:59:19;0.60;85.10
10089;DHT22;51898;49.864;8.550;2024-01-15T10:02:21;0.60;85.00
10089;DHT22;51898;49.864;8.550;2024-01-15T10:05:23;0.60;84.80
10089;DHT22;51898;49.864;8.550;2024-01-15T10:08:25;0.50;85.20
10089;DHT22;51898;49.864;8.550;2024-01-15T10:11:27;0.50;85.40
10089;DHT22;51898;49.864;8.550;2024-01-15T10:14:29;0.50;85.60
10089;DHT22;51898;49.864;8.550;2024-01-15T10:17:31;0.60;85.50
10089;DHT22;51898;49.864;8.550;2024-01-15T10:20:33;0.60;85.50
10089;DHT22;51898;49.864;8.550;2024-01-15T10:23:35;0.60;85.40
10089;DHT22;51898;49.864;8.550;2024-01-15T10:26:37;0.60;85.40
10089;DHT22;51898;49.864;8.550;2024-01-15T10:29:41;0.60;85.50
10089;DHT22;51898;49.864;8.550;2024-01-15T10:33:00;0.60;85.80
10089;DHT22;51898;49.864;8.550;2024-01-15T10:36:03;0.70;85.80
10089;DHT22;51898;49.864;8.550;2024-01-15T10:39:10;0.80;85.80
10089;DHT22;51898;49.864;8.550;2024-01-15T10:42:14;0.90;85.50
10089;DHT22;51898;49.864;8.550;2024-01-15T10:45:17;1.00;85.10
10089;DHT22;51898;49.864;8.550;2024-01-15T10:48:19;1.00;84.30
10089;DHT22;51898;49.864;8.550;2024-01-15T10:51:21;0.90;83.90
10089;DHT22;51898;49.864;8.550;2024-01-15T10:54:24;0.90;83.90
10089;DHT22;51898;49.864;8.550;2024-01-15T10:57:26;0.80;83.60
10089;DHT22;51898;49.864;8.550;2024-01-15T11:00:29;0.80;83.80
10089;DHT22;51898;49.864;8.550;2024-01-15T11:03:31;0.80;83.50
10089;DHT22;51898;49.864;8.550;2024-01-15T11:06:45;0.80;83.50
10089;DHT22;51898;49.864;8.550;2024-01-15T11:09:47;0.80;83.60
10089;DHT22;51898;49.864;8.550;2024-01-15T11:12:50;0.80;84.00
10089;DHT22;51898;49.864;8.550;2024-01-15T11:16:09;0.80;84.00
10089;DHT22;51898;49.864;8.550;2024-01-15T11:19:12;0.80;83.30
10089;DHT22;51898;49.864;8.550;2024-01-15T11:25:35;1.00;82.70
10089;DHT22;51898;49.864;8.550;2024-01-15T11:28:48;1.10;81.90
10089;DHT22;51898;49.864;8.550;2024-01-15T11:34:59;1.30;80.30
10089;DHT22;51898;49.864;8.550;2024-01-15T11:38:03;1.50;79.70
10089;DHT22;51898;49.864;8.550;2024-01-15T11:41:16;1.70;80.00
10089;DHT22;51898;49.864;8.550;2024-01-15T11:44:17;1.90;78.60
10089;DHT22;51898;49.864;8.550;2024-01-15T11:47:50;1.80;78.30
10089;DHT22;51898;49.864;8.550;2024-01-15T11:51:00;1.80;78.90
10089;DHT22;51898;49.864;8.550;2024-01-15T11:54:04;1.80;78.90
10089;DHT22;51898;49.864;8.550;2024-01-15T11:57:17;1.80;79.00
10089;DHT22;51898;49.864;8.550;2024-01-15T12:00:21;1.80;78.40
10089;DHT22;51898;49.864;8.550;2024-01-15T12:03:24;2.00;78.10
10089;DHT22;51898;49.864;8.550;2024-01-15T12:06:26;2.10;77.80
10089;DHT22;51898;49.864;8.550;2024-01-15T12:09:28;1.90;77.90
10089;DHT22;51898;49.864;8.550;2024-01-15T12:15:58;1.70;78.70
10089;DHT22;51898;49.864;8.550;2024-01-15T12:19:03;1.60;79.50
10089;DHT22;51898;49.864;8.550;2024-01-15T12:22:05;1.50;79.80
10089;DHT22;51898;49.864;8.550;2024-01-15T12:25:07;1.60;79.60
10089;DHT22;51898;49.864;8.550;2024-01-15T12:28:09;1.50;80.20
10089;DHT22;51898;49.864;8.550;2024-01-15T12:31:10;1.50;80.00
10089;DHT22;51898;49.864;8.550;2024-01-15T12:34:12;1.50;80.20
10089;DHT22;51898;49.864;8.550;2024-01-15T12:37:14;1.60;79.70
10089;DHT22;51898;49.864;8.550;2024-01-15T12:40:19;1.60;79.50
10089;DHT22;51898;49.864;8.550;2024-01-15T12:43:21;1.70;79.50
10089;DHT22;51898;49.864;8.550;2024-01-15T12:46:26;1.70;79.50
10089;DHT22;51898;49.864;8.550;2024-01-15T12:49:28;1.80;79.30
10089;DHT22;51898;49.864;8.550;2024-01-15T12:52:30;1.80;79.00
10089;DHT22;51898;49.864;8.550;2024-01-15T12:55:33;1.80;79.00
10089;DHT22;51898;49.864;8.550;2024-01-15T12:58:36;1.90;78.80
10089;DHT22;51898;49.864;8.550;2024-01-15T13:01:37;1.80;79.00
10089;DHT22;51898;49.864;8.550;2024-01-15T13:04:40;1.80;78.70
10089;DHT22;51898;49.864;8.550;2024-01-15T13:07:42;1.80;79.30
10089;DHT22;51898;49.864;8.550;2024-01-15T13:10:45;1.80;78.90
10089;DHT22;51898;49.864;8.550;2024-01-15T13:13:47;1.80;79.00
10089;DHT22;51898;49.864;8.550;2024-01-15T13:16:49;1.80;78.80
10089;DHT22;51898;49.864;8.550;2024-01-15T13:19:50;1.80;78.60
10089;DHT22;51898;49.864;8.550;2024-01-15T13:22:52;1.80;78.80
10089;DHT22;51898;49.864;8.550;2024-01-15T13:25:54;1.80;78.70
10089;DHT22;51898;49.864;8.550;2024-01-15T13:28:56;1.80;77.80
10089;DHT22;51898;49.864;8.550;2024-01-15T13:31:58;1.80;78.30
10089;DHT22;51898;49.864;8.550;2024-01-15T13:35:00;1.90;77.90
10089;DHT22;51898;49.864;8.550;2024-01-15T13:38:02;1.90;78.00
10089;DHT22;51898;49.864;8.550;2024-01-15T13:41:05;1.90;77.20
10089;DHT22;51898;49.864;8.550;2024-01-15T13:44:07;1.90;77.60
10089;DHT22;51898;49.864;8.550;2024-01-15T13:47:09;1.90;77.60
10089;DHT22;51898;49.864;8.550;2024-01-15T13:50:11;1.90;77.00
10089;DHT22;51898;49.864;8.550;2024-01-15T13:53:13;1.90;76.60
10089;DHT22;51898;49.864;8.550;2024-01-15T13:56:15;1.90;76.70
10089;DHT22;51898;49.864;8.550;2024-01-15T13:59:19;1.90;76.20
10089;DHT22;51898;49.864;8.550;2024-01-15T14:02:21;2.00;76.20
10089;DHT22;51898;49.864;8.550;2024-01-15T14:05:25;2.00;76.10
10089;DHT22;51898;49.864;8.550;2024-01-15T14:08:27;2.00;76.20
10089;DHT22;51898;49.864;8.550;2024-01-15T14:11:29;2.10;75.70
10089;DHT22;51898;49.864;8.550;2024-01-15T14:14:31;2.20;74.70
10089;DHT22;51898;49.864;8.550;2024-01-15T14:17:33;2.20;74.90
10089;DHT22;51898;49.864;8.550;2024-01-15T14:20:36;2.40;74.60
10089;DHT22;51898;49.864;8.550;2024-01-15T14:23:38;2.50;73.90
10089;DHT22;51898;49.864;8.550;2024-01-15T14:26:40;2.70;73.30
10089;DHT22;51898;49.864;8.550;2024-01-15T14:29:43;2.60;72.90
10089;DHT22;51898;49.864;8.550;2024-01-15T14:32:44;2.60;72.70
10089;DHT22;51898;49.864;8.550;2024-01-15T14:35:46;2.50;72.70
10089;DHT22;51898;49.864;8.550;2024-01-15T14:38:48;2.50;73.30
10089;DHT22;51898;49.864;8.550;2024-01-15T14:41:50;2.50;73.30
10089;DHT22;51898;49.864;8.550;2024-01-15T14:44:53;2.50;73.20
10089;DHT22;51898;49.864;8.550;2024-01-15T14:47:55;2.50;72.70
10089;DHT22;51898;49.864;8.550;2024-01-15T14:50:58;2.50;73.10
10089;DHT22;51898;49.864;8.550;2024-01-15T14:54:00;2.40;72.90
10089;DHT22;51898;49.864;8.550;2024-01-15T14:57:02;2.40;72.30
10089;DHT22;51898;49.864;8.550;2024-01-15T15:00:05;2.40;72.20
10089;DHT22;51898;49.864;8.550;2024-01-15T15:03:08;2.50;72.10
10089;DHT22;51898;49.864;8.550;2024-01-15T15:06:12;2.40;72.00
10089;DHT22;51898;49.864;8.550;2024-01-15T15:09:14;2.40;71.40
10089;DHT22;51898;49.864;8.550;2024-01-15T15:12:17;2.50;71.20
10089;DHT22;51898;49.864;8.550;2024-01-15T15:15:18;2.50;70.90
10089;DHT22;51898;49.864;8.550;2024-01-15T15:18:23;2.50;70.60
10089;DHT22;51898;49.864;8.550;2024-01-15T15:21:26;2.40;71.00
10089;DHT22;51898;49.864;8.550;2024-01-15T15:24:28;2.40;71.20
10089;DHT22;51898;49.864;8.550;2024-01-15T15:27:30;2.30;71.30
10089;DHT22;51898;49.864;8.550;2024-01-15T15:30:34;2.30;70.50
10089;DHT22;51898;49.864;8.550;2024-01-15T15:33:36;2.30;70.90
10089;DHT22;51898;49.864;8.550;2024-01-15T15:36:38;2.20;71.10
10089;DHT22;51898;49.864;8.550;2024-01-15T15:39:40;2.10;71.40
10089;DHT22;51898;49.864;8.550;2024-01-15T15:42:42;2.10;71.50
10089;DHT22;51898;49.864;8.550;2024-01-15T15:45:43;2.00;71.70
10089;DHT22;51898;49.864;8.550;2024-01-15T15:48:45;2.00;72.10
10089;DHT22;51898;49.864;8.550;2024-01-15T15:51:47;2.00;72.30
10089;DHT22;51898;49.864;8.550;2024-01-15T15:54:49;1.90;72.60
10089;DHT22;51898;49.864;8.550;2024-01-15T15:57:51;1.90;72.20
10089;DHT22;51898;49.864;8.550;2024-01-15T16:00:52;1.90;72.50
10089;DHT22;51898;49.864;8.550;2024-01-15T16:03:54;1.80;72.70
10089;DHT22;51898;49.864;8.550;2024-01-15T16:06:56;1.70;72.70
10089;DHT22;51898;49.864;8.550;2024-01-15T16:09:58;1.60;73.00
10089;DHT22;51898;49.864;8.550;2024-01-15T16:13:00;1.60;73.10
10089;DHT22;51898;49.864;8.550;2024-01-15T16:16:02;1.50;73.50
10089;DHT22;51898;49.864;8.550;2024-01-15T16:19:24;1.50;73.50
10089;DHT22;51898;49.864;8.550;2024-01-15T16:22:48;1.50;73.90
10089;DHT22;51898;49.864;8.550;2024-01-15T16:26:10;1.40;74.20
10089;DHT22;51898;49.864;8.550;2024-01-15T16:29:13;1.50;73.70
10089;DHT22;51898;49.864;8.550;2024-01-15T16:32:14;1.40;73.40
10089;DHT22;51898;49.864;8.550;2024-01-15T16:35:16;1.40;73.40
10089;DHT22;51898;49.864;8.550;2024-01-15T16:38:18;1.40;73.60
10089;DHT22;51898;49.864;8.550;2024-01-15T16:41:20;1.30;73.80
10089;DHT22;51898;49.864;8.550;2024-01-15T16:44:24;1.30;73.80
10089;DHT22;51898;49.864;8.550;2024-01-15T16:47:26;1.40;73.90
10089;DHT22;51898;49.864;8.550;2024-01-15T16:50:28;1.40;74.10
10089;DHT22;51898;49.864;8.550;2024-01-15T16:53:30;1.40;73.60
10089;DHT22;51898;49.864;8.550;2024-01-15T16:56:31;1.50;73.00
10089;DHT22;51898;49.864;8.550;2024-01-15T16:59:33;1.50;73.00
10089;DHT22;51898;49.864;8.550;2024-01-15T17:02:35;1.50;72.80
10089;DHT22;51898;49.864;8.550;2024-01-15T17:05:37;1.50;72.80
10089;DHT22;51898;49.864;8.550;2024-01-15T17:08:38;1.50;72.50
10089;DHT22;51898;49.864;8.550;2024-01-15T17:11:40;1.50;72.10
10089;DHT22;51898;49.864;8.550;2024-01-15T17:14:42;1.50;71.80
10089;DHT22;51898;49.864;8.550;2024-01-15T17:17:44;1.60;71.60
10089;DHT22;51898;49.864;8.550;2024-01-15T17:20:46;1.60;71.80
10089;DHT22;51898;49.864;8.550;2024-01-15T17:23:48;1.50;71.90
10089;DHT22;51898;49.864;8.550;2024-01-15T17:26:50;1.50;72.10
10089;DHT22;51898;49.864;8.550;2024-01-15T17:29:52;1.50;72.00
10089;DHT22;51898;49.864;8.550;2024-01-15T17:32:54;1.50;71.70
10089;DHT22;51898;49.864;8.550;2024-01-15T17:35:56;1.50;71.70
10089;DHT22;51898;49.864;8.550;2024-01-15T17:38:58;1.60;71.40
10089;DHT22;51898;49.864;8.550;2024-01-15T17:42:00;1.60;71.00
10089;DHT22;51898;49.864;8.550;2024-01-15T17:45:03;1.60;71.50
10089;DHT22;51898;49.864;8.550;2024-01-15T17:48:08;1.60;71.30
10089;DHT22;51898;49.864;8.550;2024-01-15T17:51:19;1.60;71.70
10089;DHT22;51898;49.864;8.550;2024-01-15T17:54:21;1.60;71.60
10089;DHT22;51898;49.864;8.550;2024-01-15T17:57:22;1.60;71.30
10089;DHT22;51898;49.864;8.550;2024-01-15T18:00:24;1.60;71.40
10089;DHT22;51898;49.864;8.550;2024-01-15T18:03:26;1.60;72.00
10089;DHT22;51898;49.864;8.550;2024-01-15T18:06:28;1.60;72.00
10089;DHT22;51898;49.864;8.550;2024-01-15T18:09:30;1.60;72.00
10089;DHT22;51898;49.864;8.550;2024-01-15T18:12:31;1.60;72.30
10089;DHT22;51898;49.864;8.550;2024-01-15T18:15:33;1.50;72.50
10089;DHT22;51898;49.864;8.550;2024-01-15T18:18:35;1.50;72.90
10089;DHT22;51898;49.864;8.550;2024-01-15T18:21:37;1.40;73.00
10089;DHT22;51898;49.864;8.550;2024-01-15T18:24:39;1.40;73.10
10089;DHT22;51898;49.864;8.550;2024-01-15T18:27:40;1.40;73.90
10089;DHT22;51898;49.864;8.550;2024-01-15T18:30:42;1.40;74.70
10089;DHT22;51898;49.864;8.550;2024-01-15T18:33:44;1.30;75.60
10089;DHT22;51898;49.864;8.550;2024-01-15T18:37:05;1.30;76.40
10089;DHT22;51898;49.864;8.550;2024-01-15T18:40:08;1.20;76.40
10089;DHT22;51898;49.864;8.550;2024-01-15T18:43:11;1.20;76.40
10089;DHT22;51898;49.864;8.550;2024-01-15T18:46:18;1.20;76.20
10089;DHT22;51898;49.864;8.550;2024-01-15T18:49:19;1.20;76.10
10089;DHT22;51898;49.864;8.550;2024-01-15T18:52:22;1.20;76.00
10089;DHT22;51898;49.864;8.550;2024-01-15T18:55:24;1.20;76.10
10089;DHT22;51898;49.864;8.550;2024-01-15T18:58:25;1.20;76.00
10089;DHT22;51898;49.864;8.550;2024-01-15T19:01:29;1.20;75.70
10089;DHT22;51898;49.864;8.550;2024-01-15T19:04:31;1.20;75.50
10089;DHT22;51898;49.864;8.550;2024-01-15T19:07:33;1.30;75.20
10089;DHT22;51898;49.864;8.550;2024-01-15T19:10:34;1.30;75.40
10089;DHT22;51898;49.864;8.550;2024-01-15T19:13:37;1.30;75.30
10089;DHT22;51898;49.864;8.550;2024-01-15T19:16:44;1.30;75.10
10089;DHT22;51898;49.864;8.550;2024-01-15T19:19:49;1.30;75.40
10089;DHT22;51898;49.864;8.550;2024-01-15T19:22:52;1.30;75.20
10089;DHT22;51898;49.864;8.550;2024-01-15T19:25:54;1.30;75.30
10089;DHT22;51898;49.864;8.550;2024-01-15T19:28:56;1.40;75.00
10089;DHT22;51898;49.864;8.550;2024-01-15T19:31:58;1.40;74.90
10089;DHT22;51898;49.864;8.550;2024-01-15T19:35:02;1.30;74.80
10089;DHT22;51898;49.864;8.550;2024-01-15T19:38:04;1.30;75.00
10089;DHT22;51898;49.864;8.550;2024-01-15T19:41:07;1.30;75.00
10089;DHT22;51898;49.864;8.550;2024-01-15T19:44:09;1.30;75.30
10089;DHT22;51898;49.864;8.550;2024-01-15T19:47:10;1.20;75.50
10089;DHT22;51898;49.864;8.550;2024-01-15T19:50:12;1.20;75.40
10089;DHT22;51898;49.864;8.550;2024-01-15T19:53:14;1.20;75.50
10089;DHT22;51898;49.864;8.550;2024-01-15T19:56:16;1.10;76.00
10089;DHT22;51898;49.864;8.550;2024-01-15T19:59:19;1.00;76.50
10089;DHT22;51898;49.864;8.550;2024-01-15T20:02:21;0.90;77.00
10089;DHT22;51898;49.864;8.550;2024-01-15T20:05:23;0.80;77.50
10089;DHT22;51898;49.864;8.550;2024-01-15T20:08:25;0.60;78.20
10089;DHT22;51898;49.864;8.550;2024-01-15T20:11:27;0.60;78.40